Time;durP1;ratioP1;P1;durP2;ratioP2;P2;SDS_P1;SDS_P2;PMS_P1;PMS_P2;Temp;Humidity;BMP_temperature;BMP_pressure;BME280_temperature;BME280_humidity;BME280_pressure;Samples;Min_cycle;Max_cycle;Signal;HPM_P1;HPM_P2
2021/06/22 00:00:43;;;;;;;9.53;5.80;;;14.30;99.90;;;;;;5054623;28;20229;-78
2021/06/22 00:03:10;;;;;;;10.27;5.80;;;14.30;99.90;;;;;;5054546;28;20290;-78
2021/06/22 00:05:39;;;;;;;9.33;5.27;;;14.20;99.90;;;;;;5054227;28;20649;-77
2021/06/22 00:08:06;;;;;;;8.23;5.67;;;14.20;99.90;;;;;;5054443;28;20223;-79
2021/06/22 00:10:34;;;;;;;8.47;4.90;;;14.30;99.90;;;;;;5053374;28;20287;-78
2021/06/22 00:13:02;;;;;;;10.67;5.30;;;14.30;99.90;;;;;;5051535;28;20224;-78
2021/06/22 00:15:30;;;;;;;10.33;5.13;;;14.30;99.90;;;;;;5039906;28;20685;-77
2021/06/22 00:17:57;;;;;;;7.53;4.90;;;14.30;99.90;;;;;;5053694;28;20279;-77
2021/06/22 00:20:25;;;;;;;8.97;5.13;;;14.30;99.90;;;;;;5053734;28;20745;-78
2021/06/22 00:22:55;;;;;;;9.53;4.87;;;14.30;99.90;;;;;;5054334;28;20621;-77
2021/06/22 00:25:23;;;;;;;7.87;4.67;;;14.30;99.90;;;;;;5053945;28;20227;-77
2021/06/22 00:27:51;;;;;;;8.40;5.47;;;14.30;99.90;;;;;;5049065;28;20197;-78
2021/06/22 00:30:19;;;;;;;8.47;4.80;;;14.30;99.90;;;;;;5053799;28;20239;-76
2021/06/22 00:32:46;;;;;;;9.93;5.30;;;14.20;99.90;;;;;;5053435;28;20600;-79
2021/06/22 00:35:14;;;;;;;8.67;4.70;;;14.20;99.90;;;;;;5053698;28;20196;-78
2021/06/22 00:37:43;;;;;;;10.37;4.67;;;14.20;99.90;;;;;;5050192;28;20376;-77
2021/06/22 00:40:12;;;;;;;10.00;4.57;;;14.20;99.90;;;;;;5054168;28;20200;-76
2021/06/22 00:42:41;;;;;;;9.10;4.40;;;14.20;99.90;;;;;;5053193;28;20223;-77
2021/06/22 00:45:09;;;;;;;8.03;4.40;;;14.20;99.90;;;;;;5053322;28;20646;-77
2021/06/22 00:47:36;;;;;;;10.27;4.67;;;14.20;99.90;;;;;;5052726;28;20228;-77
2021/06/22 00:50:03;;;;;;;11.80;5.27;;;14.20;99.90;;;;;;5053656;28;20326;-79
2021/06/22 00:52:31;;;;;;;8.40;4.73;;;14.20;99.90;;;;;;5039468;28;20676;-77
2021/06/22 00:54:58;;;;;;;9.87;5.07;;;14.20;99.90;;;;;;5037595;28;20283;-77
2021/06/22 00:57:26;;;;;;;9.60;4.67;;;14.30;99.90;;;;;;5053128;28;20306;-77
2021/06/22 00:59:54;;;;;;;8.47;4.47;;;14.30;99.90;;;;;;5052967;28;20213;-77
2021/06/22 01:02:21;;;;;;;9.00;4.87;;;14.30;99.90;;;;;;5053490;28;20283;-77
2021/06/22 01:04:48;;;;;;;7.73;4.87;;;14.20;99.90;;;;;;5052960;28;20578;-77
2021/06/22 01:07:16;;;;;;;8.53;4.93;;;14.20;99.90;;;;;;5053207;28;20219;-77
2021/06/22 01:09:43;;;;;;;9.13;4.50;;;14.20;99.90;;;;;;5052811;28;20641;-78
2021/06/22 01:12:11;;;;;;;12.37;4.97;;;14.20;99.90;;;;;;5035509;28;20693;-78
2021/06/22 01:14:43;;;;;;;8.23;4.50;;;14.10;99.90;;;;;;5052948;28;20211;-78
2021/06/22 01:17:10;;;;;;;6.77;4.37;;;14.10;99.90;;;;;;5039925;28;20645;-78
2021/06/22 01:19:37;;;;;;;12.27;4.83;;;14.00;99.90;;;;;;5053143;28;20365;-76
2021/06/22 01:22:06;;;;;;;9.00;4.23;;;14.10;99.90;;;;;;5052255;28;20195;-78
2021/06/22 01:24:33;;;;;;;9.37;4.40;;;14.10;99.90;;;;;;5052962;28;20292;-78
2021/06/22 01:27:01;;;;;;;6.80;4.20;;;14.10;99.90;;;;;;5052793;28;20633;-76
2021/06/22 01:29:29;;;;;;;7.93;4.40;;;14.10;99.90;;;;;;5052969;28;20229;-78
2021/06/22 01:31:57;;;;;;;8.40;4.37;;;14.20;99.90;;;;;;5052942;28;20227;-77
2021/06/22 01:34:25;;;;;;;10.87;4.30;;;14.10;99.90;;;;;;5052986;28;20257;-77
2021/06/22 01:36:52;;;;;;;6.97;4.40;;;14.20;99.90;;;;;;5052626;28;20247;-78
2021/06/22 01:39:20;;;;;;;10.00;4.03;;;14.10;99.90;;;;;;5033903;28;20234;-77
2021/06/22 01:41:47;;;;;;;10.53;4.33;;;14.10;99.90;;;;;;5053211;28;20203;-77
2021/06/22 01:44:14;;;;;;;8.07;4.50;;;14.00;99.90;;;;;;5053035;28;20224;-77
2021/06/22 01:46:41;;;;;;;7.87;4.40;;;14.10;99.90;;;;;;5052701;28;20202;-76
2021/06/22 01:49:08;;;;;;;7.90;4.37;;;14.10;99.90;;;;;;5053073;28;20235;-77
2021/06/22 01:51:35;;;;;;;7.83;3.93;;;14.10;99.90;;;;;;5053097;28;20291;-78
2021/06/22 01:54:02;;;;;;;6.23;4.30;;;14.10;99.90;;;;;;5052506;28;20196;-78
2021/06/22 01:56:33;;;;;;;9.10;4.20;;;14.00;99.90;;;;;;5052663;28;20759;-77
2021/06/22 01:59:01;;;;;;;7.30;4.70;;;14.00;99.90;;;;;;5053139;28;20650;-77
2021/06/22 02:01:28;;;;;;;16.97;4.47;;;14.00;99.90;;;;;;5053704;28;20199;-77
2021/06/22 02:03:55;;;;;;;6.77;4.30;;;14.00;99.90;;;;;;5054529;28;20200;-78
2021/06/22 02:06:21;;;;;;;10.23;4.23;;;14.00;99.90;;;;;;5065048;28;20256;-78
2021/06/22 02:08:49;;;;;;;9.97;4.13;;;13.90;99.90;;;;;;5064250;28;20230;-77
2021/06/22 02:11:16;;;;;;;8.03;4.47;;;13.90;99.90;;;;;;5060823;28;20226;-77
2021/06/22 02:13:45;;;;;;;7.73;3.43;;;13.90;99.90;;;;;;5059536;28;20223;-77
2021/06/22 02:16:12;;;;;;;5.47;3.23;;;13.80;99.90;;;;;;5058747;28;20211;-77
2021/06/22 02:18:39;;;;;;;12.20;4.07;;;13.70;99.90;;;;;;5057650;28;20250;-78
2021/06/22 02:21:06;;;;;;;6.43;3.73;;;13.80;99.90;;;;;;5058657;28;20215;-78
2021/06/22 02:23:34;;;;;;;7.20;4.00;;;13.80;99.90;;;;;;5055889;28;20658;-78
2021/06/22 02:26:01;;;;;;;7.23;3.87;;;13.80;99.90;;;;;;5056265;28;20210;-78
2021/06/22 02:28:28;;;;;;;8.27;4.27;;;13.80;99.90;;;;;;5053352;28;20283;-77
2021/06/22 02:30:57;;;;;;;6.77;3.67;;;13.90;99.90;;;;;;5053350;28;20224;-78
2021/06/22 02:33:24;;;;;;;5.47;4.07;;;13.90;99.90;;;;;;5057355;28;20192;-78
2021/06/22 02:35:52;;;;;;;10.27;5.23;;;13.90;99.90;;;;;;5059393;28;20673;-77
2021/06/22 02:38:19;;;;;;;8.80;4.00;;;13.90;99.90;;;;;;5050510;28;20306;-77
2021/06/22 02:40:47;;;;;;;9.23;3.70;;;13.80;99.90;;;;;;5056030;28;20312;-77
2021/06/22 02:43:14;;;;;;;10.27;4.00;;;13.80;99.90;;;;;;5056406;28;20200;-78
2021/06/22 02:45:42;;;;;;;7.47;3.97;;;13.80;99.90;;;;;;5055733;28;20202;-78
2021/06/22 02:48:10;;;;;;;8.90;3.73;;;13.90;99.90;;;;;;5055727;28;20208;-78
2021/06/22 02:50:39;;;;;;;8.90;3.70;;;13.90;99.90;;;;;;5055961;28;20242;-77
2021/06/22 02:53:06;;;;;;;6.73;3.83;;;13.90;99.90;;;;;;5055913;28;20196;-78
2021/06/22 02:55:33;;;;;;;10.60;4.23;;;13.80;99.90;;;;;;5055828;28;20227;-78
2021/06/22 02:58:00;;;;;;;6.93;3.60;;;13.80;99.90;;;;;;5055282;28;20776;-78
2021/06/22 03:00:30;;;;;;;10.97;4.10;;;13.90;99.90;;;;;;5055763;28;20726;-77
2021/06/22 03:02:57;;;;;;;7.37;4.30;;;13.90;99.90;;;;;;5055582;28;20208;-78
2021/06/22 03:05:26;;;;;;;7.73;3.70;;;13.90;99.90;;;;;;5055475;28;20282;-77
2021/06/22 03:07:53;;;;;;;5.53;3.77;;;13.80;99.90;;;;;;5055374;28;20246;-77
2021/06/22 03:10:22;;;;;;;8.27;4.27;;;13.80;99.90;;;;;;5055499;28;20195;-78
2021/06/22 03:12:49;;;;;;;8.97;4.07;;;13.80;99.90;;;;;;5055144;28;20224;-79
2021/06/22 03:15:18;;;;;;;7.43;4.43;;;13.80;99.90;;;;;;5055262;28;20210;-77
2021/06/22 03:17:45;;;;;;;10.43;4.30;;;13.80;99.90;;;;;;5054798;28;20561;-77
2021/06/22 03:20:13;;;;;;;7.77;4.40;;;13.80;99.90;;;;;;5055103;28;20291;-78
2021/06/22 03:22:42;;;;;;;12.07;4.30;;;13.80;99.90;;;;;;5055020;28;20646;-78
2021/06/22 03:25:11;;;;;;;8.30;4.37;;;13.80;99.90;;;;;;5055209;28;20208;-79
2021/06/22 03:27:38;;;;;;;8.30;4.37;;;13.70;99.90;;;;;;5055227;28;20219;-77
2021/06/22 03:30:08;;;;;;;10.50;5.00;;;13.70;99.90;;;;;;5054999;28;20227;-78
2021/06/22 03:32:35;;;;;;;11.97;4.97;;;13.70;99.90;;;;;;5055263;28;20275;-78
2021/06/22 03:35:05;;;;;;;10.67;4.90;;;13.80;99.90;;;;;;5054803;28;20645;-78
2021/06/22 03:37:32;;;;;;;13.60;5.20;;;13.70;99.90;;;;;;5049531;28;20212;-79
2021/06/22 03:40:04;;;;;;;10.20;4.40;;;13.70;99.90;;;;;;5054453;28;20275;-78
2021/06/22 03:42:31;;;;;;;17.50;5.07;;;13.70;99.90;;;;;;5054727;28;20225;-77
2021/06/22 03:44:58;;;;;;;11.63;4.87;;;13.70;99.90;;;;;;5054877;28;20216;-78
2021/06/22 03:47:25;;;;;;;14.50;5.57;;;13.60;99.90;;;;;;5054709;28;20303;-78
2021/06/22 03:49:52;;;;;;;12.93;5.13;;;13.70;99.90;;;;;;5054495;28;20281;-78
2021/06/22 03:52:19;;;;;;;12.33;5.40;;;13.70;99.90;;;;;;5058974;28;20188;-78
2021/06/22 03:54:46;;;;;;;18.53;5.43;;;13.70;99.90;;;;;;5053933;28;20192;-78
2021/06/22 03:57:15;;;;;;;10.73;5.17;;;13.60;99.90;;;;;;5053956;28;20220;-78
2021/06/22 03:59:42;;;;;;;13.23;5.30;;;13.60;99.90;;;;;;5053583;28;20196;-77
2021/06/22 04:02:09;;;;;;;14.30;5.60;;;13.50;99.90;;;;;;5053762;28;20228;-78
2021/06/22 04:04:36;;;;;;;11.50;5.37;;;13.50;99.90;;;;;;5053485;28;20192;-78
2021/06/22 04:07:03;;;;;;;17.30;5.40;;;13.50;99.90;;;;;;5054194;28;20201;-79
2021/06/22 04:09:30;;;;;;;12.17;5.53;;;13.50;99.90;;;;;;5053334;28;20196;-80
2021/06/22 04:11:57;;;;;;;10.37;4.97;;;13.40;99.90;;;;;;5053138;28;20283;-79
2021/06/22 04:14:26;;;;;;;17.50;6.03;;;13.40;99.90;;;;;;5053565;28;20652;-78
2021/06/22 04:16:52;;;;;;;10.03;5.70;;;13.40;99.90;;;;;;5053228;28;20283;-78
2021/06/22 04:19:19;;;;;;;17.93;5.63;;;13.40;99.90;;;;;;5055796;28;20192;-81
2021/06/22 04:21:46;;;;;;;12.97;5.73;;;13.30;99.90;;;;;;5054550;28;20288;-78
2021/06/22 04:24:13;;;;;;;13.60;6.33;;;13.30;99.90;;;;;;5050511;28;20198;-78
2021/06/22 04:26:40;;;;;;;16.77;5.73;;;13.30;99.90;;;;;;5055004;28;20290;-78
2021/06/22 04:29:07;;;;;;;15.90;6.20;;;13.40;99.90;;;;;;5062738;28;20282;-78
2021/06/22 04:31:35;;;;;;;14.83;5.93;;;13.30;99.90;;;;;;5056452;28;20232;-79
2021/06/22 04:34:02;;;;;;;14.33;5.70;;;13.30;99.90;;;;;;5053000;28;20642;-80
2021/06/22 04:36:29;;;;;;;11.63;5.83;;;13.30;99.90;;;;;;5055113;28;20206;-78
2021/06/22 04:38:56;;;;;;;12.77;5.70;;;13.20;99.90;;;;;;5055224;28;20255;-78
2021/06/22 04:41:23;;;;;;;11.60;6.00;;;13.30;99.90;;;;;;5052983;28;20279;-78
2021/06/22 04:43:50;;;;;;;10.60;5.57;;;13.30;99.90;;;;;;5052221;28;20200;-79
2021/06/22 04:46:18;;;;;;;13.63;5.87;;;13.20;99.90;;;;;;5052362;28;20771;-78
2021/06/22 04:48:46;;;;;;;13.30;6.10;;;13.30;99.90;;;;;;5053298;28;20204;-78
2021/06/22 04:51:13;;;;;;;15.90;5.70;;;13.40;99.90;;;;;;5052055;28;20279;-79
2021/06/22 04:53:40;;;;;;;17.43;6.53;;;13.40;99.90;;;;;;5053642;28;20563;-79
2021/06/22 04:56:07;;;;;;;14.07;5.70;;;13.40;99.90;;;;;;5051893;28;20202;-78
2021/06/22 04:58:35;;;;;;;10.50;5.83;;;13.40;99.90;;;;;;5053386;28;20306;-79
2021/06/22 05:01:04;;;;;;;20.03;6.57;;;13.40;99.90;;;;;;5053226;28;20270;-78
2021/06/22 05:03:32;;;;;;;16.33;6.17;;;13.40;99.90;;;;;;5052688;28;20235;-79
2021/06/22 05:06:01;;;;;;;18.03;6.97;;;13.30;99.90;;;;;;5052384;28;20586;-79
2021/06/22 05:08:28;;;;;;;16.20;7.20;;;13.30;99.90;;;;;;5048902;28;20200;-79
2021/06/22 05:10:54;;;;;;;20.37;6.63;;;13.40;99.90;;;;;;5052374;28;20200;-78
2021/06/22 05:13:21;;;;;;;16.33;6.13;;;13.30;99.90;;;;;;5052554;28;20609;-77
2021/06/22 05:15:48;;;;;;;19.90;6.83;;;13.30;99.90;;;;;;5049057;28;20219;-79
2021/06/22 05:18:15;;;;;;;17.27;6.47;;;13.30;99.90;;;;;;5052401;28;20215;-78
2021/06/22 05:20:42;;;;;;;18.43;7.30;;;13.20;99.90;;;;;;5049073;28;20282;-81
2021/06/22 05:23:10;;;;;;;16.53;7.57;;;13.10;99.90;;;;;;5043773;28;20200;-80
2021/06/22 05:25:37;;;;;;;11.80;6.70;;;13.10;99.90;;;;;;5060310;28;20283;-78
2021/06/22 05:28:04;;;;;;;15.97;6.87;;;13.10;99.90;;;;;;5058580;28;20201;-79
2021/06/22 05:30:31;;;;;;;14.97;6.53;;;13.10;99.90;;;;;;5059562;28;20283;-77
2021/06/22 05:32:58;;;;;;;17.77;7.33;;;13.00;99.90;;;;;;5054766;28;20294;-78
2021/06/22 05:35:25;;;;;;;12.23;6.57;;;13.00;99.90;;;;;;5044999;28;20713;-81
2021/06/22 05:37:52;;;;;;;19.20;7.50;;;13.10;99.90;;;;;;5049278;28;20265;-79
2021/06/22 05:40:21;;;;;;;11.17;6.13;;;13.10;99.90;;;;;;5052316;28;20674;-78
2021/06/22 05:42:48;;;;;;;23.20;7.43;;;13.20;99.90;;;;;;5052668;28;20267;-78
2021/06/22 05:45:16;;;;;;;16.00;6.80;;;13.20;99.90;;;;;;5051014;28;20203;-78
2021/06/22 05:47:42;;;;;;;14.47;6.70;;;13.20;99.90;;;;;;5056222;28;20586;-78
2021/06/22 05:50:11;;;;;;;17.17;7.63;;;13.20;99.90;;;;;;5055818;28;20219;-79
2021/06/22 05:52:38;;;;;;;16.20;6.73;;;13.20;99.90;;;;;;5050777;28;20203;-77
2021/06/22 05:55:16;;;;;;;15.90;6.33;;;13.20;99.90;;;;;;5050435;28;20284;-80
2021/06/22 05:57:46;;;;;;;13.93;6.70;;;13.20;99.90;;;;;;5048585;28;20219;-78
2021/06/22 06:00:14;;;;;;;13.50;6.20;;;13.20;99.90;;;;;;5050628;28;20208;-77
2021/06/22 06:02:40;;;;;;;17.30;6.27;;;13.10;99.90;;;;;;5050421;28;20275;-78
2021/06/22 06:05:09;;;;;;;14.23;5.77;;;13.10;99.90;;;;;;5043270;28;20279;-81
2021/06/22 06:07:36;;;;;;;14.23;6.03;;;13.10;99.90;;;;;;5053130;28;20196;-78
2021/06/22 06:10:05;;;;;;;21.70;5.87;;;13.10;99.90;;;;;;5061661;28;20287;-78
2021/06/22 06:12:32;;;;;;;16.23;6.63;;;13.10;99.90;;;;;;5054108;28;20634;-79
2021/06/22 06:15:00;;;;;;;18.57;5.87;;;13.20;99.90;;;;;;5045299;28;20619;-80
2021/06/22 06:17:27;;;;;;;15.90;5.80;;;13.20;99.90;;;;;;5060119;28;20230;-78
2021/06/22 06:19:54;;;;;;;11.17;4.67;;;13.20;99.90;;;;;;5057606;28;20218;-78
2021/06/22 06:22:21;;;;;;;11.60;5.53;;;13.20;99.90;;;;;;5051822;28;20945;-78
2021/06/22 06:24:48;;;;;;;12.83;5.80;;;13.20;99.90;;;;;;5050938;28;20196;-78
2021/06/22 06:27:16;;;;;;;15.67;5.87;;;13.10;99.90;;;;;;5050375;28;20220;-79
2021/06/22 06:29:50;;;;;;;14.10;5.80;;;13.00;99.90;;;;;;5052081;28;20203;-79
2021/06/22 06:32:18;;;;;;;16.27;5.53;;;12.90;99.90;;;;;;5045406;28;20188;-78
2021/06/22 06:34:45;;;;;;;15.13;6.27;;;12.90;99.90;;;;;;5034187;28;20324;-82
2021/06/22 06:37:13;;;;;;;18.10;5.67;;;12.80;99.90;;;;;;5051989;28;20646;-77
2021/06/22 06:39:43;;;;;;;16.53;6.57;;;12.90;99.90;;;;;;5039312;28;20223;-78
2021/06/22 06:42:10;;;;;;;16.73;6.27;;;12.90;99.90;;;;;;5042524;28;20204;-79
2021/06/22 06:44:37;;;;;;;13.87;6.13;;;12.90;99.90;;;;;;5056817;28;20528;-79
2021/06/22 06:47:04;;;;;;;17.87;7.17;;;12.90;99.90;;;;;;5052112;28;20196;-78
2021/06/22 06:49:35;;;;;;;14.90;6.60;;;12.90;99.90;;;;;;5045110;28;20196;-78
2021/06/22 06:52:02;;;;;;;14.37;6.37;;;12.90;99.90;;;;;;5035572;28;20196;-79
2021/06/22 06:54:29;;;;;;;12.93;6.77;;;13.00;99.90;;;;;;5055610;28;20203;-78
2021/06/22 06:56:56;;;;;;;18.43;7.70;;;13.00;99.90;;;;;;5047764;28;20227;-79
2021/06/22 06:59:23;;;;;;;14.17;7.40;;;13.00;99.90;;;;;;5049546;28;20227;-79
2021/06/22 07:01:50;;;;;;;15.37;7.43;;;13.00;99.90;;;;;;5047623;28;20281;-81
2021/06/22 07:04:18;;;;;;;14.43;7.80;;;13.00;99.90;;;;;;5042685;28;20224;-81
2021/06/22 07:06:47;;;;;;;14.83;8.23;;;13.10;99.90;;;;;;5043872;28;20681;-80
2021/06/22 07:09:14;;;;;;;17.97;8.57;;;13.10;99.90;;;;;;5043863;28;20193;-82
2021/06/22 07:11:41;;;;;;;21.20;8.40;;;13.20;99.90;;;;;;5052860;28;20674;-84
2021/06/22 07:14:08;;;;;;;16.43;8.33;;;13.30;99.90;;;;;;5053046;28;20617;-82
2021/06/22 07:16:36;;;;;;;21.03;8.53;;;13.30;99.90;;;;;;5039950;28;20228;-81
2021/06/22 07:19:05;;;;;;;18.03;9.13;;;13.30;99.90;;;;;;5038380;28;20730;-80
2021/06/22 07:21:32;;;;;;;16.97;9.23;;;13.30;99.90;;;;;;5055058;28;20642;-80
2021/06/22 07:24:00;;;;;;;22.00;8.90;;;13.30;99.90;;;;;;5050808;28;20206;-80
2021/06/22 07:26:27;;;;;;;20.83;9.43;;;13.30;99.90;;;;;;5050966;28;20246;-81
2021/06/22 07:28:54;;;;;;;22.97;9.57;;;13.30;99.90;;;;;;5050672;28;20286;-82
2021/06/22 07:31:21;;;;;;;17.40;9.23;;;13.20;99.90;;;;;;5053199;28;20198;-81
2021/06/22 07:33:50;;;;;;;22.40;10.03;;;13.20;99.90;;;;;;5046026;28;20205;-82
2021/06/22 07:36:18;;;;;;;20.57;10.27;;;13.20;99.90;;;;;;5038279;28;20216;-80
2021/06/22 07:38:45;;;;;;;16.13;10.07;;;13.20;99.90;;;;;;5040262;28;20213;-80
2021/06/22 07:41:15;;;;;;;18.60;9.57;;;13.20;99.90;;;;;;5063532;28;20277;-82
2021/06/22 07:43:42;;;;;;;20.70;9.97;;;13.20;99.90;;;;;;5045353;28;20222;-82
2021/06/22 07:46:09;;;;;;;21.53;9.43;;;13.20;99.90;;;;;;5043219;28;20211;-84
2021/06/22 07:48:36;;;;;;;15.47;9.50;;;13.20;99.90;;;;;;5051800;28;20646;-82
2021/06/22 07:51:03;;;;;;;21.50;10.50;;;13.20;99.90;;;;;;5049574;28;20725;-82
2021/06/22 07:53:30;;;;;;;20.90;9.90;;;13.30;99.90;;;;;;5045370;28;20204;-83
2021/06/22 07:55:57;;;;;;;18.57;8.77;;;13.30;99.90;;;;;;5046617;28;20287;-82
2021/06/22 07:58:25;;;;;;;21.73;10.27;;;13.20;99.90;;;;;;5045253;28;20257;-79
2021/06/22 08:00:54;;;;;;;18.87;9.70;;;13.10;99.90;;;;;;5071344;28;20203;-81
2021/06/22 08:03:23;;;;;;;19.37;9.80;;;13.10;99.90;;;;;;5063687;28;20200;-81
2021/06/22 08:05:52;;;;;;;19.47;10.23;;;13.10;99.90;;;;;;5058333;28;20270;-81
2021/06/22 08:08:21;;;;;;;18.33;9.77;;;13.20;99.90;;;;;;5050322;28;20207;-81
2021/06/22 08:10:50;;;;;;;20.63;9.73;;;13.20;99.90;;;;;;5051525;28;20222;-80
2021/06/22 08:13:17;;;;;;;15.97;10.13;;;13.30;99.90;;;;;;5045881;28;20562;-82
2021/06/22 08:15:46;;;;;;;21.67;9.93;;;13.20;99.90;;;;;;5042331;28;20197;-81
2021/06/22 08:18:13;;;;;;;20.77;10.90;;;13.30;99.90;;;;;;5037012;28;20234;-81
2021/06/22 08:20:41;;;;;;;19.73;10.80;;;13.40;99.90;;;;;;5044848;28;20196;-80
2021/06/22 08:23:09;;;;;;;21.13;10.07;;;13.50;99.90;;;;;;5050136;28;20315;-82
2021/06/22 08:25:36;;;;;;;17.40;10.53;;;13.40;99.90;;;;;;5038867;28;20280;-81
2021/06/22 08:28:03;;;;;;;19.40;9.50;;;13.50;99.90;;;;;;5040484;28;20255;-81
2021/06/22 08:30:32;;;;;;;20.53;9.27;;;13.50;99.90;;;;;;5049907;28;20289;-81
2021/06/22 08:33:02;;;;;;;23.93;9.57;;;13.50;99.90;;;;;;5044784;28;20211;-82
2021/06/22 08:35:31;;;;;;;18.00;9.83;;;13.60;99.90;;;;;;5041003;28;20227;-82
2021/06/22 08:37:59;;;;;;;22.80;10.90;;;13.60;99.90;;;;;;5023902;28;20212;-81
2021/06/22 08:40:28;;;;;;;25.33;10.13;;;13.70;99.90;;;;;;5039562;28;20212;-81
2021/06/22 08:42:55;;;;;;;15.10;9.70;;;13.90;99.90;;;;;;5047989;28;20313;-82
2021/06/22 08:45:22;;;;;;;21.90;10.40;;;13.60;99.90;;;;;;5044203;28;20242;-83
2021/06/22 08:47:49;;;;;;;19.10;9.70;;;13.60;99.90;;;;;;5042443;28;20227;-85
2021/06/22 08:50:18;;;;;;;18.97;8.93;;;13.60;99.90;;;;;;5038026;28;20208;-83
2021/06/22 08:52:45;;;;;;;21.93;10.13;;;13.50;99.90;;;;;;5050015;28;20209;-83
2021/06/22 08:55:26;;;;;;;13.77;8.43;;;13.60;99.90;;;;;;5045600;28;20685;-82
2021/06/22 08:57:54;;;;;;;16.73;8.83;;;13.70;99.90;;;;;;5047709;28;20279;-80
2021/06/22 09:00:21;;;;;;;20.83;8.50;;;13.60;99.90;;;;;;5041238;28;20212;-80
2021/06/22 09:02:58;;;;;;;17.83;8.63;;;13.60;99.90;;;;;;5052197;28;20196;-80
2021/06/22 09:05:27;;;;;;;22.23;8.73;;;13.60;99.90;;;;;;5035988;28;20391;-81
2021/06/22 09:07:54;;;;;;;17.03;8.80;;;13.60;99.90;;;;;;5040543;28;20286;-81
2021/06/22 09:10:29;;;;;;;14.80;8.43;;;13.60;99.90;;;;;;5043815;28;20215;-83
2021/06/22 09:12:57;;;;;;;19.60;9.37;;;13.60;99.90;;;;;;5033701;28;20271;-81
2021/06/22 09:15:28;;;;;;;15.87;7.50;;;13.60;99.90;;;;;;5056894;28;20203;-80
2021/06/22 09:17:56;;;;;;;15.77;7.47;;;13.50;99.90;;;;;;5054881;28;20198;-80
2021/06/22 09:20:40;;;;;;;16.30;8.07;;;13.50;99.90;;;;;;5053444;28;20746;-81
2021/06/22 09:23:16;;;;;;;17.73;7.20;;;13.50;99.90;;;;;;5020503;28;20210;-83
2021/06/22 09:25:55;;;;;;;15.30;7.37;;;13.60;99.90;;;;;;5054623;28;20539;-81
2021/06/22 09:28:30;;;;;;;17.90;7.80;;;13.70;99.90;;;;;;5057185;28;20192;-81
2021/06/22 09:31:01;;;;;;;19.67;7.63;;;13.70;99.90;;;;;;5050755;28;20276;-81
2021/06/22 09:33:32;;;;;;;18.80;6.90;;;13.60;99.90;;;;;;5034764;28;20270;-80
2021/06/22 09:36:16;;;;;;;20.27;8.50;;;13.60;99.90;;;;;;5044556;28;20195;-80
2021/06/22 09:38:54;;;;;;;26.00;9.07;;;13.80;99.90;;;;;;5052903;28;20265;-80
2021/06/22 09:41:36;;;;;;;16.37;8.23;;;13.90;99.90;;;;;;5047504;28;20200;-81
2021/06/22 09:44:06;;;;;;;22.83;8.23;;;13.90;99.90;;;;;;5045632;28;20188;-81
2021/06/22 09:46:38;;;;;;;17.03;8.20;;;14.00;99.90;;;;;;5053282;28;20192;-81
2021/06/22 09:49:07;;;;;;;19.00;7.67;;;14.10;99.90;;;;;;5047877;28;20203;-81
2021/06/22 09:51:50;;;;;;;14.27;7.57;;;14.00;99.90;;;;;;5037623;28;20276;-82
2021/06/22 09:54:19;;;;;;;15.77;7.53;;;14.00;99.90;;;;;;5037195;28;20601;-81
2021/06/22 09:57:01;;;;;;;15.83;7.17;;;14.20;99.90;;;;;;5048944;28;20188;-81
2021/06/22 09:59:29;;;;;;;14.87;6.80;;;14.50;99.90;;;;;;5037279;28;20204;-80
2021/06/22 10:02:08;;;;;;;15.47;7.40;;;14.80;99.90;;;;;;5047916;28;20209;-79
2021/06/22 10:04:35;;;;;;;15.23;7.23;;;14.90;99.90;;;;;;5041910;28;20566;-80
2021/06/22 10:07:09;;;;;;;16.07;8.00;;;15.10;99.90;;;;;;5041155;28;20195;-79
2021/06/22 10:09:36;;;;;;;19.07;8.77;;;15.00;99.90;;;;;;5039554;28;20259;-81
2021/06/22 10:12:07;;;;;;;16.60;8.37;;;15.00;99.90;;;;;;5031189;28;20533;-82
2021/06/22 10:14:35;;;;;;;21.40;9.23;;;15.00;99.90;;;;;;5049374;28;20254;-80
2021/06/22 10:17:05;;;;;;;15.47;9.30;;;14.80;99.90;;;;;;5054766;28;20604;-79
2021/06/22 10:19:33;;;;;;;20.70;10.77;;;15.10;99.90;;;;;;5040294;28;20228;-78
2021/06/22 10:22:01;;;;;;;19.73;9.80;;;15.50;99.90;;;;;;5052728;28;20235;-81
2021/06/22 10:24:30;;;;;;;13.00;9.23;;;15.50;99.90;;;;;;5044698;28;20192;-80
2021/06/22 10:27:01;;;;;;;17.00;9.70;;;15.20;99.90;;;;;;5040608;28;20196;-82
2021/06/22 10:29:30;;;;;;;15.50;9.23;;;15.10;99.90;;;;;;5039782;28;20200;-82
2021/06/22 10:31:59;;;;;;;19.07;10.37;;;14.90;99.90;;;;;;5032917;28;20197;-79
2021/06/22 10:34:27;;;;;;;17.70;10.53;;;14.90;99.90;;;;;;5033116;28;20194;-78
2021/06/22 10:36:57;;;;;;;17.23;11.17;;;14.80;99.90;;;;;;5041246;28;20196;-79
2021/06/22 10:39:32;;;;;;;22.83;13.07;;;14.80;99.90;;;;;;5038937;28;20219;-79
2021/06/22 10:42:08;;;;;;;17.73;12.20;;;14.70;99.90;;;;;;5043738;28;20286;-79
2021/06/22 10:44:42;;;;;;;19.93;12.10;;;14.70;99.90;;;;;;5044316;28;20239;-81
2021/06/22 10:47:29;;;;;;;20.80;12.87;;;14.90;99.90;;;;;;5046016;28;20706;-80
2021/06/22 10:50:18;;;;;;;20.73;13.73;;;15.00;99.90;;;;;;5038334;28;20295;-80
2021/06/22 10:52:58;;;;;;;20.30;13.27;;;15.00;99.90;;;;;;5041190;28;20626;-78
2021/06/22 10:56:04;;;;;;;22.00;14.00;;;15.30;99.90;;;;;;5036238;28;20215;-80
2021/06/22 10:58:34;;;;;;;23.90;14.07;;;15.40;99.90;;;;;;5034247;28;20211;-80
2021/06/22 11:01:18;;;;;;;19.17;13.23;;;15.60;99.90;;;;;;5034912;28;20212;-78
2021/06/22 11:03:46;;;;;;;22.57;13.33;;;15.90;99.90;;;;;;5045583;28;20208;-77
2021/06/22 11:06:28;;;;;;;24.27;14.20;;;15.90;99.90;;;;;;5044088;28;20223;-78
2021/06/22 11:09:14;;;;;;;18.67;13.80;;;15.40;99.90;;;;;;5051082;28;20211;-76
2021/06/22 11:11:41;;;;;;;24.67;15.20;;;15.20;99.90;;;;;;5038290;28;20662;-77
2021/06/22 11:14:10;;;;;;;22.17;14.87;;;15.30;99.90;;;;;;5044200;28;20287;-78
2021/06/22 11:16:37;;;;;;;23.70;15.50;;;15.40;99.90;;;;;;5040160;28;20217;-79
2021/06/22 11:19:11;;;;;;;23.43;16.17;;;15.60;99.90;;;;;;5035202;28;20520;-77
2021/06/22 11:21:53;;;;;;;21.20;15.73;;;15.60;99.90;;;;;;5042520;28;20187;-77
2021/06/22 11:24:22;;;;;;;20.43;15.57;;;15.30;99.90;;;;;;5036562;28;20189;-76
2021/06/22 11:27:11;;;;;;;25.53;17.27;;;15.50;99.90;;;;;;5046613;28;20223;-77
2021/06/22 11:29:53;;;;;;;28.50;17.00;;;15.30;99.90;;;;;;5040362;28;20204;-78
2021/06/22 11:32:40;;;;;;;26.57;17.50;;;15.30;99.90;;;;;;5048192;28;20231;-78
2021/06/22 11:35:12;;;;;;;30.37;17.03;;;15.50;99.90;;;;;;5055920;28;20188;-78
2021/06/22 11:37:40;;;;;;;22.27;16.80;;;15.90;99.90;;;;;;5050900;28;20194;-78
2021/06/22 11:40:14;;;;;;;21.57;17.13;;;16.20;99.90;;;;;;5051240;28;20296;-78
2021/06/22 11:42:43;;;;;;;27.33;17.63;;;16.10;99.90;;;;;;5040530;28;20216;-78
2021/06/22 11:45:25;;;;;;;23.17;17.20;;;16.20;99.90;;;;;;5047879;28;20199;-77
2021/06/22 11:47:58;;;;;;;19.93;15.53;;;16.20;99.90;;;;;;5050495;28;20211;-77
2021/06/22 11:50:31;;;;;;;26.67;16.43;;;15.80;99.90;;;;;;5044897;28;20200;-77
2021/06/22 11:53:01;;;;;;;20.17;15.53;;;15.60;99.90;;;;;;5040958;28;20223;-76
2021/06/22 11:55:31;;;;;;;27.77;17.37;;;15.60;99.90;;;;;;5037246;28;20197;-77
2021/06/22 11:57:59;;;;;;;25.27;16.80;;;15.50;99.90;;;;;;5037838;28;20189;-77
2021/06/22 12:00:29;;;;;;;27.00;17.97;;;15.40;99.90;;;;;;5046635;28;20223;-76
2021/06/22 12:02:59;;;;;;;26.50;16.77;;;15.70;99.90;;;;;;5039267;28;20586;-76
2021/06/22 12:05:27;;;;;;;28.17;16.70;;;15.40;99.90;;;;;;5041592;28;20189;-76
2021/06/22 12:07:58;;;;;;;27.23;17.87;;;15.40;99.90;;;;;;5046109;28;20668;-77
2021/06/22 12:10:27;;;;;;;26.13;17.47;;;15.40;99.90;;;;;;5032507;28;20231;-77
2021/06/22 12:12:54;;;;;;;24.77;16.77;;;15.60;99.90;;;;;;5050820;28;20265;-78
2021/06/22 12:15:45;;;;;;;24.97;17.43;;;15.60;99.90;;;;;;5046201;28;20641;-77
2021/06/22 12:18:13;;;;;;;23.60;17.10;;;15.60;99.90;;;;;;5045506;28;20185;-77
2021/06/22 12:20:42;;;;;;;29.07;19.23;;;15.70;99.90;;;;;;5046921;28;20204;-77
2021/06/22 12:23:11;;;;;;;27.27;18.23;;;15.60;99.90;;;;;;5048010;28;20537;-77
2021/06/22 12:25:40;;;;;;;26.40;17.70;;;15.70;99.90;;;;;;5044340;28;20192;-76
2021/06/22 12:28:08;;;;;;;28.30;18.03;;;15.60;99.90;;;;;;5051360;28;20200;-77
2021/06/22 12:30:38;;;;;;;29.47;18.37;;;15.70;99.90;;;;;;5038836;28;20283;-77
2021/06/22 12:33:14;;;;;;;28.33;18.90;;;15.80;99.90;;;;;;5042624;28;20661;-77
2021/06/22 12:35:42;;;;;;;27.03;17.93;;;15.80;99.90;;;;;;5044484;28;20948;-77
2021/06/22 12:38:11;;;;;;;26.80;18.40;;;16.10;99.90;;;;;;5039835;28;20279;-77
2021/06/22 12:40:46;;;;;;;26.90;19.10;;;16.00;99.90;;;;;;5045978;28;20220;-77
2021/06/22 12:43:14;;;;;;;27.40;19.13;;;16.10;99.90;;;;;;5044656;28;20192;-78
2021/06/22 12:45:41;;;;;;;28.43;19.30;;;16.40;99.90;;;;;;5048323;28;20238;-77